Warrendale, Pennsylvania
Current Conditions -  °F | °C
As of 9:35 AM on Thursday 27 Nov 2014 (Local Time) from KBTP Reporting Station
Overcast Overcast  
Wind Chill: 26°   Ceiling: 1000
Heat Index: 32°   Visibility: 7mi
Dew Point: 28°   Wind: 6mph
Humidity: 87%   Direction: 230°SW
Pressure: 30.05"   Gusts: NA
Location:  40.65°N, 80.08°W
Report Text: KBTP 271435Z AUTO 23005KT 7SM OVC010 00/M02 A3005 RMK AO1
Loading
Personal Weather Stations






























Interactive Weather Map New forecast layout! Learn more

10-Day Weather Forecast

Advertisements
Track Severe Weather on mobile